sensor_id;sensor_type;location;lat;lon;timestamp;P1;durP1;ratioP1;P2;durP2;ratioP2
15637;SDS011;26604;53.596;10.042;2022-10-17T00:00:08;4.30;;;2.20;;
15637;SDS011;26604;53.596;10.042;2022-10-17T00:02:36;4.00;;;2.53;;
15637;SDS011;26604;53.596;10.042;2022-10-17T00:05:03;5.15;;;2.28;;
15637;SDS011;26604;53.596;10.042;2022-10-17T00:07:31;3.35;;;2.10;;
15637;SDS011;26604;53.596;10.042;2022-10-17T00:09:58;4.55;;;2.13;;
15637;SDS011;26604;53.596;10.042;2022-10-17T00:12:25;6.18;;;2.30;;
15637;SDS011;26604;53.596;10.042;2022-10-17T00:14:52;4.80;;;2.10;;
15637;SDS011;26604;53.596;10.042;2022-10-17T00:17:19;4.47;;;2.22;;
15637;SDS011;26604;53.596;10.042;2022-10-17T00:19:46;4.70;;;2.10;;
15637;SDS011;26604;53.596;10.042;2022-10-17T00:22:13;6.88;;;2.17;;
15637;SDS011;26604;53.596;10.042;2022-10-17T00:24:41;4.57;;;2.45;;
15637;SDS011;26604;53.596;10.042;2022-10-17T00:27:08;2.80;;;1.63;;
15637;SDS011;26604;53.596;10.042;2022-10-17T00:29:35;4.70;;;2.40;;
15637;SDS011;26604;53.596;10.042;2022-10-17T00:32:01;6.00;;;2.72;;
15637;SDS011;26604;53.596;10.042;2022-10-17T00:34:28;4.72;;;2.10;;
15637;SDS011;26604;53.596;10.042;2022-10-17T00:36:56;3.38;;;2.00;;
15637;SDS011;26604;53.596;10.042;2022-10-17T00:39:23;5.53;;;2.20;;
15637;SDS011;26604;53.596;10.042;2022-10-17T00:41:51;3.63;;;2.10;;
15637;SDS011;26604;53.596;10.042;2022-10-17T00:47:22;4.18;;;2.17;;
15637;SDS011;26604;53.596;10.042;2022-10-17T00:49:49;3.85;;;2.08;;
15637;SDS011;26604;53.596;10.042;2022-10-17T00:52:16;3.55;;;1.63;;
15637;SDS011;26604;53.596;10.042;2022-10-17T00:54:47;4.00;;;1.88;;
15637;SDS011;26604;53.596;10.042;2022-10-17T00:57:18;3.45;;;1.83;;
15637;SDS011;26604;53.596;10.042;2022-10-17T00:59:46;4.50;;;2.15;;
15637;SDS011;26604;53.596;10.042;2022-10-17T01:02:17;4.63;;;1.95;;
15637;SDS011;26604;53.596;10.042;2022-10-17T01:04:46;3.90;;;1.90;;
15637;SDS011;26604;53.596;10.042;2022-10-17T01:07:15;3.38;;;1.92;;
15637;SDS011;26604;53.596;10.042;2022-10-17T01:09:42;3.80;;;2.13;;
15637;SDS011;26604;53.596;10.042;2022-10-17T01:12:11;3.35;;;1.75;;
15637;SDS011;26604;53.596;10.042;2022-10-17T01:14:46;3.67;;;2.00;;
15637;SDS011;26604;53.596;10.042;2022-10-17T01:17:24;3.70;;;1.80;;
15637;SDS011;26604;53.596;10.042;2022-10-17T01:20:07;2.47;;;1.60;;
15637;SDS011;26604;53.596;10.042;2022-10-17T01:22:58;4.55;;;2.00;;
15637;SDS011;26604;53.596;10.042;2022-10-17T01:25:52;5.10;;;1.98;;
15637;SDS011;26604;53.596;10.042;2022-10-17T01:31:18;5.40;;;2.03;;
15637;SDS011;26604;53.596;10.042;2022-10-17T01:33:52;3.80;;;1.65;;
15637;SDS011;26604;53.596;10.042;2022-10-17T01:36:27;4.07;;;1.83;;
15637;SDS011;26604;53.596;10.042;2022-10-17T01:39:12;3.75;;;1.50;;
15637;SDS011;26604;53.596;10.042;2022-10-17T01:41:43;4.65;;;1.75;;
15637;SDS011;26604;53.596;10.042;2022-10-17T01:44:16;2.75;;;1.73;;
15637;SDS011;26604;53.596;10.042;2022-10-17T01:46:48;4.45;;;1.52;;
15637;SDS011;26604;53.596;10.042;2022-10-17T01:49:17;2.95;;;1.60;;
15637;SDS011;26604;53.596;10.042;2022-10-17T01:51:50;2.97;;;1.65;;
15637;SDS011;26604;53.596;10.042;2022-10-17T01:54:22;4.30;;;1.73;;
15637;SDS011;26604;53.596;10.042;2022-10-17T01:56:54;2.65;;;1.60;;
15637;SDS011;26604;53.596;10.042;2022-10-17T01:59:24;3.15;;;1.77;;
15637;SDS011;26604;53.596;10.042;2022-10-17T02:01:56;2.90;;;1.35;;
15637;SDS011;26604;53.596;10.042;2022-10-17T02:04:24;3.22;;;1.50;;
15637;SDS011;26604;53.596;10.042;2022-10-17T02:06:51;2.75;;;1.52;;
15637;SDS011;26604;53.596;10.042;2022-10-17T02:09:19;3.25;;;1.77;;
15637;SDS011;26604;53.596;10.042;2022-10-17T02:12:01;1.92;;;1.45;;
15637;SDS011;26604;53.596;10.042;2022-10-17T02:14:39;2.63;;;1.48;;
15637;SDS011;26604;53.596;10.042;2022-10-17T02:17:18;3.17;;;1.85;;
15637;SDS011;26604;53.596;10.042;2022-10-17T02:19:57;5.22;;;1.67;;
15637;SDS011;26604;53.596;10.042;2022-10-17T02:22:32;2.30;;;1.27;;
15637;SDS011;26604;53.596;10.042;2022-10-17T02:25:05;3.10;;;1.30;;
15637;SDS011;26604;53.596;10.042;2022-10-17T02:27:39;3.25;;;1.60;;
15637;SDS011;26604;53.596;10.042;2022-10-17T02:30:10;2.92;;;1.67;;
15637;SDS011;26604;53.596;10.042;2022-10-17T02:32:42;2.97;;;1.50;;
15637;SDS011;26604;53.596;10.042;2022-10-17T02:35:15;2.17;;;1.33;;
15637;SDS011;26604;53.596;10.042;2022-10-17T02:37:45;3.33;;;1.45;;
15637;SDS011;26604;53.596;10.042;2022-10-17T02:40:13;3.45;;;1.80;;
15637;SDS011;26604;53.596;10.042;2022-10-17T02:42:43;2.47;;;1.60;;
15637;SDS011;26604;53.596;10.042;2022-10-17T02:45:12;1.98;;;1.38;;
15637;SDS011;26604;53.596;10.042;2022-10-17T02:47:42;2.80;;;1.45;;
15637;SDS011;26604;53.596;10.042;2022-10-17T02:50:16;3.15;;;1.50;;
15637;SDS011;26604;53.596;10.042;2022-10-17T02:52:44;2.78;;;1.60;;
15637;SDS011;26604;53.596;10.042;2022-10-17T02:55:17;1.70;;;1.30;;
15637;SDS011;26604;53.596;10.042;2022-10-17T02:57:48;2.25;;;1.52;;
15637;SDS011;26604;53.596;10.042;2022-10-17T03:00:18;2.35;;;1.27;;
15637;SDS011;26604;53.596;10.042;2022-10-17T03:02:49;2.00;;;1.30;;
15637;SDS011;26604;53.596;10.042;2022-10-17T03:05:18;2.33;;;1.23;;
15637;SDS011;26604;53.596;10.042;2022-10-17T03:07:46;2.50;;;1.50;;
15637;SDS011;26604;53.596;10.042;2022-10-17T03:10:13;2.03;;;1.20;;
15637;SDS011;26604;53.596;10.042;2022-10-17T03:12:40;1.33;;;1.15;;
15637;SDS011;26604;53.596;10.042;2022-10-17T03:15:07;4.32;;;1.17;;
15637;SDS011;26604;53.596;10.042;2022-10-17T03:17:35;2.40;;;1.60;;
15637;SDS011;26604;53.596;10.042;2022-10-17T03:20:04;3.80;;;1.50;;
15637;SDS011;26604;53.596;10.042;2022-10-17T03:22:32;1.85;;;1.30;;
15637;SDS011;26604;53.596;10.042;2022-10-17T03:24:59;1.95;;;1.02;;
15637;SDS011;26604;53.596;10.042;2022-10-17T03:27:26;3.13;;;1.20;;
15637;SDS011;26604;53.596;10.042;2022-10-17T03:29:53;1.73;;;1.23;;
15637;SDS011;26604;53.596;10.042;2022-10-17T03:32:19;2.60;;;1.23;;
15637;SDS011;26604;53.596;10.042;2022-10-17T03:34:46;1.98;;;1.42;;
15637;SDS011;26604;53.596;10.042;2022-10-17T03:37:14;1.92;;;1.17;;
15637;SDS011;26604;53.596;10.042;2022-10-17T03:39:41;2.88;;;1.45;;
15637;SDS011;26604;53.596;10.042;2022-10-17T03:42:08;1.67;;;1.38;;
15637;SDS011;26604;53.596;10.042;2022-10-17T03:44:35;1.30;;;1.13;;
15637;SDS011;26604;53.596;10.042;2022-10-17T03:47:02;4.15;;;1.35;;
15637;SDS011;26604;53.596;10.042;2022-10-17T03:49:28;1.50;;;1.20;;
15637;SDS011;26604;53.596;10.042;2022-10-17T03:51:55;1.67;;;1.17;;
15637;SDS011;26604;53.596;10.042;2022-10-17T03:54:23;3.25;;;1.40;;
15637;SDS011;26604;53.596;10.042;2022-10-17T03:56:50;2.05;;;1.45;;
15637;SDS011;26604;53.596;10.042;2022-10-17T03:59:17;1.92;;;1.20;;
15637;SDS011;26604;53.596;10.042;2022-10-17T04:01:44;1.98;;;1.17;;
15637;SDS011;26604;53.596;10.042;2022-10-17T04:04:11;2.13;;;1.08;;
15637;SDS011;26604;53.596;10.042;2022-10-17T04:06:38;2.03;;;1.20;;
15637;SDS011;26604;53.596;10.042;2022-10-17T04:09:05;1.95;;;0.95;;
15637;SDS011;26604;53.596;10.042;2022-10-17T04:11:33;2.50;;;1.20;;
15637;SDS011;26604;53.596;10.042;2022-10-17T04:14:00;2.67;;;1.20;;
15637;SDS011;26604;53.596;10.042;2022-10-17T04:16:27;1.98;;;1.23;;
15637;SDS011;26604;53.596;10.042;2022-10-17T04:18:55;2.60;;;1.20;;
15637;SDS011;26604;53.596;10.042;2022-10-17T04:21:23;3.50;;;1.50;;
15637;SDS011;26604;53.596;10.042;2022-10-17T04:23:52;1.67;;;0.98;;
15637;SDS011;26604;53.596;10.042;2022-10-17T04:26:19;2.05;;;1.20;;
15637;SDS011;26604;53.596;10.042;2022-10-17T04:28:48;2.15;;;1.00;;
15637;SDS011;26604;53.596;10.042;2022-10-17T04:31:15;1.45;;;0.98;;
15637;SDS011;26604;53.596;10.042;2022-10-17T04:33:45;1.88;;;1.33;;
15637;SDS011;26604;53.596;10.042;2022-10-17T04:36:12;2.35;;;0.98;;
15637;SDS011;26604;53.596;10.042;2022-10-17T04:38:40;1.85;;;1.20;;
15637;SDS011;26604;53.596;10.042;2022-10-17T04:41:09;4.78;;;1.30;;
15637;SDS011;26604;53.596;10.042;2022-10-17T04:43:37;2.17;;;1.23;;
15637;SDS011;26604;53.596;10.042;2022-10-17T04:46:06;2.28;;;1.20;;
15637;SDS011;26604;53.596;10.042;2022-10-17T04:48:35;1.98;;;1.10;;
15637;SDS011;26604;53.596;10.042;2022-10-17T04:51:03;3.15;;;1.40;;
15637;SDS011;26604;53.596;10.042;2022-10-17T04:53:31;5.75;;;1.20;;
15637;SDS011;26604;53.596;10.042;2022-10-17T04:55:59;2.38;;;1.10;;
15637;SDS011;26604;53.596;10.042;2022-10-17T04:58:27;1.30;;;1.02;;
15637;SDS011;26604;53.596;10.042;2022-10-17T05:00:54;3.33;;;1.75;;
15637;SDS011;26604;53.596;10.042;2022-10-17T05:03:23;3.15;;;1.20;;
15637;SDS011;26604;53.596;10.042;2022-10-17T05:05:50;3.63;;;1.17;;
15637;SDS011;26604;53.596;10.042;2022-10-17T05:08:17;7.00;;;1.23;;
15637;SDS011;26604;53.596;10.042;2022-10-17T05:10:44;3.85;;;1.15;;
15637;SDS011;26604;53.596;10.042;2022-10-17T05:13:11;1.92;;;1.13;;
15637;SDS011;26604;53.596;10.042;2022-10-17T05:15:38;2.72;;;1.20;;
15637;SDS011;26604;53.596;10.042;2022-10-17T05:18:05;1.65;;;1.10;;
15637;SDS011;26604;53.596;10.042;2022-10-17T05:20:34;2.55;;;1.38;;
15637;SDS011;26604;53.596;10.042;2022-10-17T05:23:01;2.03;;;1.02;;
15637;SDS011;26604;53.596;10.042;2022-10-17T05:25:28;2.30;;;1.15;;
15637;SDS011;26604;53.596;10.042;2022-10-17T05:27:55;2.53;;;1.20;;
15637;SDS011;26604;53.596;10.042;2022-10-17T05:30:22;1.15;;;0.90;;
15637;SDS011;26604;53.596;10.042;2022-10-17T05:32:50;2.00;;;0.95;;
15637;SDS011;26604;53.596;10.042;2022-10-17T05:35:18;2.95;;;1.10;;
15637;SDS011;26604;53.596;10.042;2022-10-17T05:37:47;3.55;;;1.15;;
15637;SDS011;26604;53.596;10.042;2022-10-17T05:40:14;2.45;;;1.15;;
15637;SDS011;26604;53.596;10.042;2022-10-17T05:42:44;2.75;;;1.40;;
15637;SDS011;26604;53.596;10.042;2022-10-17T05:45:11;2.78;;;1.13;;
15637;SDS011;26604;53.596;10.042;2022-10-17T05:47:38;2.70;;;1.27;;
15637;SDS011;26604;53.596;10.042;2022-10-17T05:50:05;6.10;;;1.42;;
15637;SDS011;26604;53.596;10.042;2022-10-17T05:52:33;4.82;;;1.30;;
15637;SDS011;26604;53.596;10.042;2022-10-17T05:55:02;2.80;;;1.60;;
15637;SDS011;26604;53.596;10.042;2022-10-17T05:57:29;4.70;;;1.42;;
15637;SDS011;26604;53.596;10.042;2022-10-17T05:59:56;4.82;;;1.60;;
15637;SDS011;26604;53.596;10.042;2022-10-17T06:02:22;6.22;;;1.77;;
15637;SDS011;26604;53.596;10.042;2022-10-17T06:04:49;2.80;;;1.27;;
15637;SDS011;26604;53.596;10.042;2022-10-17T06:07:16;3.33;;;1.27;;
15637;SDS011;26604;53.596;10.042;2022-10-17T06:09:43;3.17;;;1.52;;
15637;SDS011;26604;53.596;10.042;2022-10-17T06:12:11;5.35;;;1.45;;
15637;SDS011;26604;53.596;10.042;2022-10-17T06:14:38;3.15;;;1.27;;
15637;SDS011;26604;53.596;10.042;2022-10-17T06:17:05;2.67;;;1.40;;
15637;SDS011;26604;53.596;10.042;2022-10-17T06:19:32;3.35;;;1.30;;
15637;SDS011;26604;53.596;10.042;2022-10-17T06:21:59;2.00;;;1.25;;
15637;SDS011;26604;53.596;10.042;2022-10-17T06:24:26;2.88;;;1.30;;
15637;SDS011;26604;53.596;10.042;2022-10-17T06:26:53;1.65;;;1.25;;
15637;SDS011;26604;53.596;10.042;2022-10-17T06:29:21;2.78;;;1.15;;
15637;SDS011;26604;53.596;10.042;2022-10-17T06:31:48;2.60;;;1.40;;
15637;SDS011;26604;53.596;10.042;2022-10-17T06:34:15;6.10;;;1.25;;
15637;SDS011;26604;53.596;10.042;2022-10-17T06:36:42;4.40;;;1.27;;
15637;SDS011;26604;53.596;10.042;2022-10-17T06:39:09;2.33;;;1.42;;
15637;SDS011;26604;53.596;10.042;2022-10-17T06:41:35;4.43;;;1.50;;
15637;SDS011;26604;53.596;10.042;2022-10-17T06:44:03;2.78;;;1.40;;
15637;SDS011;26604;53.596;10.042;2022-10-17T06:46:36;1.95;;;1.27;;
15637;SDS011;26604;53.596;10.042;2022-10-17T06:49:04;2.03;;;1.00;;
15637;SDS011;26604;53.596;10.042;2022-10-17T06:51:33;6.93;;;1.20;;
15637;SDS011;26604;53.596;10.042;2022-10-17T06:54:01;4.35;;;1.38;;
15637;SDS011;26604;53.596;10.042;2022-10-17T06:56:28;2.40;;;1.20;;
15637;SDS011;26604;53.596;10.042;2022-10-17T06:58:55;5.55;;;1.27;;
15637;SDS011;26604;53.596;10.042;2022-10-17T07:01:22;1.95;;;1.10;;
15637;SDS011;26604;53.596;10.042;2022-10-17T07:03:50;2.33;;;1.02;;
15637;SDS011;26604;53.596;10.042;2022-10-17T07:06:17;2.03;;;1.00;;
15637;SDS011;26604;53.596;10.042;2022-10-17T07:08:44;2.38;;;1.13;;
15637;SDS011;26604;53.596;10.042;2022-10-17T07:11:12;5.82;;;1.23;;
15637;SDS011;26604;53.596;10.042;2022-10-17T07:13:40;2.80;;;1.17;;
15637;SDS011;26604;53.596;10.042;2022-10-17T07:16:07;3.45;;;1.00;;
15637;SDS011;26604;53.596;10.042;2022-10-17T07:18:35;3.22;;;1.30;;
15637;SDS011;26604;53.596;10.042;2022-10-17T07:21:04;2.17;;;1.20;;
15637;SDS011;26604;53.596;10.042;2022-10-17T07:23:32;3.25;;;1.23;;
15637;SDS011;26604;53.596;10.042;2022-10-17T07:26:01;2.33;;;0.90;;
15637;SDS011;26604;53.596;10.042;2022-10-17T07:28:31;3.72;;;1.05;;
15637;SDS011;26604;53.596;10.042;2022-10-17T07:31:01;1.10;;;0.95;;
15637;SDS011;26604;53.596;10.042;2022-10-17T07:33:29;4.03;;;1.10;;
15637;SDS011;26604;53.596;10.042;2022-10-17T07:35:57;2.90;;;1.20;;
15637;SDS011;26604;53.596;10.042;2022-10-17T07:38:26;2.15;;;0.90;;
15637;SDS011;26604;53.596;10.042;2022-10-17T07:40:53;2.75;;;1.30;;
15637;SDS011;26604;53.596;10.042;2022-10-17T07:43:21;3.42;;;1.40;;
15637;SDS011;26604;53.596;10.042;2022-10-17T07:45:48;2.53;;;1.25;;
15637;SDS011;26604;53.596;10.042;2022-10-17T07:48:15;3.58;;;1.40;;
15637;SDS011;26604;53.596;10.042;2022-10-17T07:50:42;2.25;;;1.35;;
15637;SDS011;26604;53.596;10.042;2022-10-17T07:53:09;3.42;;;1.13;;
15637;SDS011;26604;53.596;10.042;2022-10-17T07:55:38;2.25;;;1.48;;
15637;SDS011;26604;53.596;10.042;2022-10-17T07:58:05;1.92;;;1.30;;
15637;SDS011;26604;53.596;10.042;2022-10-17T08:00:32;3.08;;;1.67;;
15637;SDS011;26604;53.596;10.042;2022-10-17T08:02:59;3.47;;;1.60;;
15637;SDS011;26604;53.596;10.042;2022-10-17T08:05:26;3.80;;;1.27;;
15637;SDS011;26604;53.596;10.042;2022-10-17T08:07:53;4.00;;;1.73;;
15637;SDS011;26604;53.596;10.042;2022-10-17T08:10:20;1.92;;;1.20;;
15637;SDS011;26604;53.596;10.042;2022-10-17T08:12:53;2.30;;;1.60;;
15637;SDS011;26604;53.596;10.042;2022-10-17T08:15:20;2.88;;;1.30;;
15637;SDS011;26604;53.596;10.042;2022-10-17T08:17:47;3.70;;;1.70;;
15637;SDS011;26604;53.596;10.042;2022-10-17T08:20:14;3.25;;;1.83;;
15637;SDS011;26604;53.596;10.042;2022-10-17T08:22:41;2.58;;;1.48;;
15637;SDS011;26604;53.596;10.042;2022-10-17T08:25:08;5.47;;;1.67;;
15637;SDS011;26604;53.596;10.042;2022-10-17T08:27:35;4.32;;;1.85;;
15637;SDS011;26604;53.596;10.042;2022-10-17T08:30:04;3.28;;;1.73;;
15637;SDS011;26604;53.596;10.042;2022-10-17T08:32:31;4.18;;;1.92;;
15637;SDS011;26604;53.596;10.042;2022-10-17T08:35:04;3.70;;;2.15;;
15637;SDS011;26604;53.596;10.042;2022-10-17T08:37:38;2.72;;;1.85;;
15637;SDS011;26604;53.596;10.042;2022-10-17T08:40:05;4.93;;;1.75;;
15637;SDS011;26604;53.596;10.042;2022-10-17T08:42:48;10.07;;;2.92;;
15637;SDS011;26604;53.596;10.042;2022-10-17T08:45:26;6.25;;;2.55;;
15637;SDS011;26604;53.596;10.042;2022-10-17T08:47:57;7.60;;;2.00;;
15637;SDS011;26604;53.596;10.042;2022-10-17T08:50:28;5.38;;;2.08;;
15637;SDS011;26604;53.596;10.042;2022-10-17T08:53:02;5.20;;;2.25;;
15637;SDS011;26604;53.596;10.042;2022-10-17T08:55:33;4.47;;;2.30;;
15637;SDS011;26604;53.596;10.042;2022-10-17T08:58:06;5.32;;;2.47;;
15637;SDS011;26604;53.596;10.042;2022-10-17T09:00:39;4.50;;;2.00;;
15637;SDS011;26604;53.596;10.042;2022-10-17T09:03:14;10.60;;;2.58;;
15637;SDS011;26604;53.596;10.042;2022-10-17T09:06:00;3.90;;;2.05;;
15637;SDS011;26604;53.596;10.042;2022-10-17T09:08:37;6.10;;;2.50;;
15637;SDS011;26604;53.596;10.042;2022-10-17T09:11:13;4.10;;;2.40;;
15637;SDS011;26604;53.596;10.042;2022-10-17T09:13:54;4.97;;;2.30;;
15637;SDS011;26604;53.596;10.042;2022-10-17T09:16:33;3.72;;;2.00;;
15637;SDS011;26604;53.596;10.042;2022-10-17T09:19:14;5.75;;;2.83;;
15637;SDS011;26604;53.596;10.042;2022-10-17T09:21:46;4.32;;;2.15;;
15637;SDS011;26604;53.596;10.042;2022-10-17T09:24:18;6.78;;;3.22;;
15637;SDS011;26604;53.596;10.042;2022-10-17T09:26:49;6.93;;;2.58;;
15637;SDS011;26604;53.596;10.042;2022-10-17T09:29:19;4.07;;;2.58;;
15637;SDS011;26604;53.596;10.042;2022-10-17T09:31:50;9.55;;;2.58;;
15637;SDS011;26604;53.596;10.042;2022-10-17T09:34:21;8.60;;;2.83;;
15637;SDS011;26604;53.596;10.042;2022-10-17T09:36:52;7.40;;;2.90;;
15637;SDS011;26604;53.596;10.042;2022-10-17T09:39:21;6.07;;;2.55;;
15637;SDS011;26604;53.596;10.042;2022-10-17T09:41:50;6.10;;;2.60;;
15637;SDS011;26604;53.596;10.042;2022-10-17T09:44:20;7.63;;;2.22;;
15637;SDS011;26604;53.596;10.042;2022-10-17T09:46:53;6.25;;;2.58;;
15637;SDS011;26604;53.596;10.042;2022-10-17T09:49:38;12.52;;;2.72;;
15637;SDS011;26604;53.596;10.042;2022-10-17T09:52:09;5.05;;;2.45;;
15637;SDS011;26604;53.596;10.042;2022-10-17T09:54:40;9.15;;;2.72;;
15637;SDS011;26604;53.596;10.042;2022-10-17T09:57:10;6.90;;;2.53;;
15637;SDS011;26604;53.596;10.042;2022-10-17T09:59:38;11.60;;;3.08;;
15637;SDS011;26604;53.596;10.042;2022-10-17T10:02:13;10.20;;;2.63;;
15637;SDS011;26604;53.596;10.042;2022-10-17T10:04:50;8.05;;;2.45;;
15637;SDS011;26604;53.596;10.042;2022-10-17T10:07:19;7.18;;;2.60;;
15637;SDS011;26604;53.596;10.042;2022-10-17T10:09:46;5.18;;;2.80;;
15637;SDS011;26604;53.596;10.042;2022-10-17T10:12:15;8.30;;;2.47;;
15637;SDS011;26604;53.596;10.042;2022-10-17T10:14:44;8.05;;;2.38;;
15637;SDS011;26604;53.596;10.042;2022-10-17T10:17:26;6.88;;;2.55;;
15637;SDS011;26604;53.596;10.042;2022-10-17T10:19:58;9.18;;;2.72;;
15637;SDS011;26604;53.596;10.042;2022-10-17T10:22:25;10.40;;;2.63;;
15637;SDS011;26604;53.596;10.042;2022-10-17T10:25:06;7.65;;;2.60;;
15637;SDS011;26604;53.596;10.042;2022-10-17T10:27:33;7.55;;;2.72;;
15637;SDS011;26604;53.596;10.042;2022-10-17T10:30:01;7.00;;;2.72;;
15637;SDS011;26604;53.596;10.042;2022-10-17T10:32:31;9.77;;;3.10;;
15637;SDS011;26604;53.596;10.042;2022-10-17T10:35:00;8.02;;;3.10;;
15637;SDS011;26604;53.596;10.042;2022-10-17T10:37:32;8.38;;;2.97;;
15637;SDS011;26604;53.596;10.042;2022-10-17T10:40:03;7.85;;;3.17;;
15637;SDS011;26604;53.596;10.042;2022-10-17T10:42:31;8.40;;;2.92;;
15637;SDS011;26604;53.596;10.042;2022-10-17T10:45:03;5.78;;;2.78;;
15637;SDS011;26604;53.596;10.042;2022-10-17T10:47:42;3.95;;;2.65;;
15637;SDS011;26604;53.596;10.042;2022-10-17T10:50:17;10.55;;;2.97;;
15637;SDS011;26604;53.596;10.042;2022-10-17T10:52:51;6.60;;;2.70;;
15637;SDS011;26604;53.596;10.042;2022-10-17T10:55:25;7.55;;;3.00;;
15637;SDS011;26604;53.596;10.042;2022-10-17T10:57:56;4.78;;;2.67;;
15637;SDS011;26604;53.596;10.042;2022-10-17T11:00:28;8.55;;;3.03;;
15637;SDS011;26604;53.596;10.042;2022-10-17T11:03:00;8.00;;;2.80;;
15637;SDS011;26604;53.596;10.042;2022-10-17T11:05:36;5.07;;;2.85;;
15637;SDS011;26604;53.596;10.042;2022-10-17T11:08:12;8.00;;;3.00;;
15637;SDS011;26604;53.596;10.042;2022-10-17T11:10:47;7.72;;;3.03;;
15637;SDS011;26604;53.596;10.042;2022-10-17T11:13:25;8.52;;;3.17;;
15637;SDS011;26604;53.596;10.042;2022-10-17T11:15:58;9.57;;;3.28;;
15637;SDS011;26604;53.596;10.042;2022-10-17T11:18:44;6.95;;;3.15;;
15637;SDS011;26604;53.596;10.042;2022-10-17T11:21:17;6.28;;;2.85;;
15637;SDS011;26604;53.596;10.042;2022-10-17T11:23:51;6.05;;;3.33;;
15637;SDS011;26604;53.596;10.042;2022-10-17T11:26:26;7.93;;;3.17;;
15637;SDS011;26604;53.596;10.042;2022-10-17T11:28:56;5.65;;;2.88;;
15637;SDS011;26604;53.596;10.042;2022-10-17T11:31:26;6.25;;;3.03;;
15637;SDS011;26604;53.596;10.042;2022-10-17T11:33:57;6.50;;;2.95;;
15637;SDS011;26604;53.596;10.042;2022-10-17T11:36:27;10.65;;;3.38;;
15637;SDS011;26604;53.596;10.042;2022-10-17T11:38:57;8.50;;;3.33;;
15637;SDS011;26604;53.596;10.042;2022-10-17T11:41:28;8.23;;;3.45;;
15637;SDS011;26604;53.596;10.042;2022-10-17T11:44:03;7.40;;;3.58;;
15637;SDS011;26604;53.596;10.042;2022-10-17T11:46:38;7.05;;;3.83;;
15637;SDS011;26604;53.596;10.042;2022-10-17T11:49:10;7.30;;;3.58;;
15637;SDS011;26604;53.596;10.042;2022-10-17T11:51:41;8.32;;;3.28;;
15637;SDS011;26604;53.596;10.042;2022-10-17T11:54:11;9.23;;;3.65;;
15637;SDS011;26604;53.596;10.042;2022-10-17T11:56:49;8.98;;;3.83;;
15637;SDS011;26604;53.596;10.042;2022-10-17T11:59:32;8.40;;;3.55;;
15637;SDS011;26604;53.596;10.042;2022-10-17T12:02:26;9.93;;;4.28;;
15637;SDS011;26604;53.596;10.042;2022-10-17T12:05:02;15.27;;;4.20;;
15637;SDS011;26604;53.596;10.042;2022-10-17T12:07:42;8.60;;;4.18;;
15637;SDS011;26604;53.596;10.042;2022-10-17T12:10:18;7.10;;;4.07;;
15637;SDS011;26604;53.596;10.042;2022-10-17T12:12:52;10.45;;;4.03;;
15637;SDS011;26604;53.596;10.042;2022-10-17T12:15:26;8.10;;;4.63;;
15637;SDS011;26604;53.596;10.042;2022-10-17T12:17:54;7.53;;;3.90;;
15637;SDS011;26604;53.596;10.042;2022-10-17T12:20:33;7.93;;;3.80;;
15637;SDS011;26604;53.596;10.042;2022-10-17T12:23:03;8.25;;;4.20;;
15637;SDS011;26604;53.596;10.042;2022-10-17T12:25:48;10.02;;;4.13;;
15637;SDS011;26604;53.596;10.042;2022-10-17T12:28:18;8.52;;;4.05;;
15637;SDS011;26604;53.596;10.042;2022-10-17T12:30:56;7.20;;;4.38;;
15637;SDS011;26604;53.596;10.042;2022-10-17T12:33:27;7.75;;;3.45;;
15637;SDS011;26604;53.596;10.042;2022-10-17T12:42:47;6.55;;;3.65;;
15637;SDS011;26604;53.596;10.042;2022-10-17T12:48:11;8.73;;;3.88;;
15637;SDS011;26604;53.596;10.042;2022-10-17T12:53:30;7.88;;;3.97;;
15637;SDS011;26604;53.596;10.042;2022-10-17T12:56:03;5.63;;;3.55;;
15637;SDS011;26604;53.596;10.042;2022-10-17T12:58:32;6.50;;;3.90;;
15637;SDS011;26604;53.596;10.042;2022-10-17T13:01:00;7.10;;;4.03;;
15637;SDS011;26604;53.596;10.042;2022-10-17T13:03:29;6.00;;;3.40;;
15637;SDS011;26604;53.596;10.042;2022-10-17T13:05:59;9.20;;;4.30;;
15637;SDS011;26604;53.596;10.042;2022-10-17T13:08:28;7.28;;;3.55;;
15637;SDS011;26604;53.596;10.042;2022-10-17T13:10:58;7.15;;;3.38;;
15637;SDS011;26604;53.596;10.042;2022-10-17T13:13:34;6.03;;;3.55;;
15637;SDS011;26604;53.596;10.042;2022-10-17T13:16:06;6.10;;;3.67;;
15637;SDS011;26604;53.596;10.042;2022-10-17T13:18:33;5.55;;;3.38;;
15637;SDS011;26604;53.596;10.042;2022-10-17T13:21:02;10.18;;;3.88;;
15637;SDS011;26604;53.596;10.042;2022-10-17T13:23:31;5.85;;;3.58;;
15637;SDS011;26604;53.596;10.042;2022-10-17T13:26:10;5.53;;;3.58;;
15637;SDS011;26604;53.596;10.042;2022-10-17T13:28:45;5.10;;;3.47;;
15637;SDS011;26604;53.596;10.042;2022-10-17T13:31:26;7.38;;;3.63;;
15637;SDS011;26604;53.596;10.042;2022-10-17T13:33:56;5.68;;;3.63;;
15637;SDS011;26604;53.596;10.042;2022-10-17T13:36:24;5.50;;;3.35;;
15637;SDS011;26604;53.596;10.042;2022-10-17T13:38:52;6.95;;;3.63;;
15637;SDS011;26604;53.596;10.042;2022-10-17T13:41:21;7.75;;;3.67;;
15637;SDS011;26604;53.596;10.042;2022-10-17T13:43:52;9.75;;;3.45;;
15637;SDS011;26604;53.596;10.042;2022-10-17T13:46:24;5.65;;;3.40;;
15637;SDS011;26604;53.596;10.042;2022-10-17T13:48:54;5.68;;;3.30;;
15637;SDS011;26604;53.596;10.042;2022-10-17T13:51:22;5.35;;;3.20;;
15637;SDS011;26604;53.596;10.042;2022-10-17T13:53:50;7.63;;;3.65;;
15637;SDS011;26604;53.596;10.042;2022-10-17T13:56:17;4.72;;;3.08;;
15637;SDS011;26604;53.596;10.042;2022-10-17T13:58:46;6.13;;;3.03;;
15637;SDS011;26604;53.596;10.042;2022-10-17T14:01:16;6.07;;;3.55;;
15637;SDS011;26604;53.596;10.042;2022-10-17T14:03:44;6.47;;;3.25;;
15637;SDS011;26604;53.596;10.042;2022-10-17T14:06:13;4.90;;;3.13;;
15637;SDS011;26604;53.596;10.042;2022-10-17T14:08:53;4.65;;;3.00;;
15637;SDS011;26604;53.596;10.042;2022-10-17T14:11:25;8.52;;;3.28;;
15637;SDS011;26604;53.596;10.042;2022-10-17T14:13:57;7.50;;;3.45;;
15637;SDS011;26604;53.596;10.042;2022-10-17T14:16:26;5.97;;;3.28;;
15637;SDS011;26604;53.596;10.042;2022-10-17T14:18:59;7.38;;;3.03;;
15637;SDS011;26604;53.596;10.042;2022-10-17T14:21:26;5.30;;;3.22;;
15637;SDS011;26604;53.596;10.042;2022-10-17T14:26:46;3.97;;;3.20;;
15637;SDS011;26604;53.596;10.042;2022-10-17T14:29:19;5.95;;;2.83;;
15637;SDS011;26604;53.596;10.042;2022-10-17T14:31:55;5.93;;;3.28;;
15637;SDS011;26604;53.596;10.042;2022-10-17T14:34:30;4.93;;;3.08;;
15637;SDS011;26604;53.596;10.042;2022-10-17T14:36:59;4.28;;;2.90;;
15637;SDS011;26604;53.596;10.042;2022-10-17T14:39:27;4.63;;;2.92;;
15637;SDS011;26604;53.596;10.042;2022-10-17T14:41:54;9.73;;;3.78;;
15637;SDS011;26604;53.596;10.042;2022-10-17T14:44:23;3.47;;;2.67;;
15637;SDS011;26604;53.596;10.042;2022-10-17T14:46:54;4.40;;;2.83;;
15637;SDS011;26604;53.596;10.042;2022-10-17T14:49:32;6.93;;;3.33;;
15637;SDS011;26604;53.596;10.042;2022-10-17T14:52:11;4.97;;;2.85;;
15637;SDS011;26604;53.596;10.042;2022-10-17T14:54:54;4.95;;;3.00;;
15637;SDS011;26604;53.596;10.042;2022-10-17T14:57:23;5.05;;;2.92;;
15637;SDS011;26604;53.596;10.042;2022-10-17T14:59:52;5.00;;;3.10;;
15637;SDS011;26604;53.596;10.042;2022-10-17T15:02:21;5.22;;;2.63;;
15637;SDS011;26604;53.596;10.042;2022-10-17T15:04:48;5.50;;;2.72;;
15637;SDS011;26604;53.596;10.042;2022-10-17T15:07:15;7.22;;;3.45;;
15637;SDS011;26604;53.596;10.042;2022-10-17T15:09:43;5.72;;;3.05;;
15637;SDS011;26604;53.596;10.042;2022-10-17T15:12:13;6.40;;;3.03;;